Chetwynd, Canada
Current Conditions -  °F | °C
As of 11:00 AM on Thursday 30 Oct 2014 (Local Time) from CYCQ Reporting Station
Haze Haze  
Wind Chill: 28°   Ceiling: 800
Heat Index: 28°   Visibility: 1mi
Dew Point: 28°   Wind: 3mph
Humidity: 100%   Direction: 20°NNE
Pressure: 29.93"   Gusts: NA
Location:  55.7°N, 121.63°W
Report Text: CYCQ 301700Z 02003KT 360V060 1SM BR OVC008 M02/M02 A2993 RMK FG4ST4 VIS E 2 BLN MSRD SLP169
Loading
Personal Weather Stations






























Interactive Weather Map
Tropical Storm Tracking
New forecast layout! Learn more

10-Day Weather Forecast

Advertisements
Track Severe Weather on mobile